Time;durP1;ratioP1;P1;durP2;ratioP2;P2;SDS_P1;SDS_P2;PMS_P1;PMS_P2;Temp;Humidity;BMP_temperature;BMP_pressure;BME280_temperature;BME280_humidity;BME280_pressure;Samples;Min_cycle;Max_cycle;Signal;HPM_P1;HPM_P2
2024/03/05 00:01:59;;;;;;;69.40;32.85;;;7.60;99.90;;;;;;5014801;28;20045;-70
2024/03/05 00:04:25;;;;;;;72.07;33.13;;;7.60;99.90;;;;;;5013675;28;20152;-71
2024/03/05 00:06:51;;;;;;;67.95;31.85;;;7.50;99.90;;;;;;5013496;28;20040;-71
2024/03/05 00:09:16;;;;;;;66.35;31.90;;;7.40;99.90;;;;;;5003814;28;20030;-70
2024/03/05 00:11:42;;;;;;;62.92;30.40;;;7.50;99.90;;;;;;5006425;28;20033;-70
2024/03/05 00:14:08;;;;;;;63.40;29.60;;;7.50;99.90;;;;;;4995010;28;20057;-70
2024/03/05 00:16:34;;;;;;;73.88;33.28;;;7.50;99.90;;;;;;5007778;28;20026;-70
2024/03/05 00:19:00;;;;;;;67.82;32.97;;;7.40;99.90;;;;;;5010713;28;20033;-71
2024/03/05 00:21:25;;;;;;;66.00;32.25;;;7.40;99.90;;;;;;4997724;28;20022;-70
2024/03/05 00:23:51;;;;;;;65.95;31.48;;;7.30;99.90;;;;;;5007827;28;20046;-70
2024/03/05 00:26:18;;;;;;;63.65;29.48;;;7.30;99.90;;;;;;4999170;28;20026;-70
2024/03/05 00:28:44;;;;;;;68.15;31.45;;;7.30;99.90;;;;;;5020262;28;20032;-70
2024/03/05 00:31:10;;;;;;;65.60;31.42;;;7.20;99.90;;;;;;5005405;28;20021;-70
2024/03/05 00:33:35;;;;;;;63.47;30.73;;;7.20;99.90;;;;;;5020690;28;20674;-70
2024/03/05 00:36:03;;;;;;;64.55;32.15;;;7.20;99.90;;;;;;5022611;28;20379;-70
2024/03/05 00:38:29;;;;;;;65.47;32.28;;;7.20;99.90;;;;;;5022794;28;20018;-70
2024/03/05 00:40:55;;;;;;;65.47;32.55;;;7.20;99.90;;;;;;5021766;28;20021;-70
2024/03/05 00:43:20;;;;;;;62.72;32.28;;;7.20;99.90;;;;;;5021153;28;20029;-70
2024/03/05 00:45:46;;;;;;;73.82;31.80;;;7.20;99.90;;;;;;5021944;28;20451;-70
2024/03/05 00:48:12;;;;;;;70.25;33.35;;;7.20;99.90;;;;;;5024137;28;20033;-70
2024/03/05 00:50:37;;;;;;;57.80;30.17;;;7.20;99.90;;;;;;5022160;28;20021;-70
2024/03/05 00:53:04;;;;;;;66.55;31.70;;;7.20;99.90;;;;;;5005806;28;20024;-70
2024/03/05 00:55:30;;;;;;;65.43;30.95;;;7.10;99.90;;;;;;5023527;28;20025;-71
2024/03/05 00:57:56;;;;;;;68.32;30.48;;;7.20;99.90;;;;;;5022016;28;20367;-70
2024/03/05 01:00:24;;;;;;;69.78;33.25;;;7.10;99.90;;;;;;5020581;28;20161;-70
2024/03/05 01:02:50;;;;;;;62.92;31.98;;;7.20;99.90;;;;;;5004712;28;20010;-70
2024/03/05 01:05:16;;;;;;;66.28;31.20;;;7.20;99.90;;;;;;5021982;28;20036;-70
2024/03/05 01:07:41;;;;;;;65.65;32.05;;;7.20;99.90;;;;;;5023326;28;20370;-71
2024/03/05 01:10:08;;;;;;;66.50;32.92;;;7.30;99.90;;;;;;5022815;28;20029;-71
2024/03/05 01:12:33;;;;;;;60.45;30.10;;;7.20;99.90;;;;;;5019115;28;20425;-70
2024/03/05 01:15:50;;;;;;;64.25;32.00;;;7.20;99.90;;;;;;5016248;28;20038;-70
2024/03/05 01:18:44;;;;;;;72.05;31.70;;;7.20;99.90;;;;;;5017269;28;20013;-70
2024/03/05 01:21:09;;;;;;;65.53;32.13;;;7.20;99.90;;;;;;5021748;28;20021;-70
2024/03/05 01:23:35;;;;;;;71.28;33.97;;;7.20;99.90;;;;;;5022085;28;20394;-69
2024/03/05 01:26:01;;;;;;;69.78;32.53;;;7.20;99.90;;;;;;5013873;28;20025;-69
2024/03/05 01:28:29;;;;;;;68.95;33.25;;;7.20;99.90;;;;;;5012406;28;20033;-68
2024/03/05 01:30:55;;;;;;;68.07;32.15;;;7.20;99.90;;;;;;5012426;28;20462;-69
2024/03/05 01:33:21;;;;;;;58.13;29.00;;;7.20;99.90;;;;;;5011921;28;20113;-69
2024/03/05 01:35:48;;;;;;;64.22;32.10;;;7.20;99.90;;;;;;5010203;28;20026;-69
2024/03/05 01:38:14;;;;;;;66.63;32.50;;;7.20;99.90;;;;;;4993241;28;20022;-71
2024/03/05 01:40:40;;;;;;;65.30;30.48;;;7.20;99.90;;;;;;4992169;28;20022;-70
2024/03/05 01:43:07;;;;;;;64.43;32.38;;;7.20;99.90;;;;;;4993115;28;20030;-70
2024/03/05 01:45:33;;;;;;;66.68;31.77;;;7.20;99.90;;;;;;5000528;28;20410;-70
2024/03/05 01:48:00;;;;;;;68.47;31.80;;;7.20;99.90;;;;;;4993206;28;20038;-70
2024/03/05 01:50:27;;;;;;;68.80;31.70;;;7.20;99.90;;;;;;5000362;28;20413;-70
2024/03/05 01:52:53;;;;;;;60.08;30.65;;;7.20;99.90;;;;;;5013035;28;20147;-70
2024/03/05 01:55:19;;;;;;;69.18;32.67;;;7.20;99.90;;;;;;5008094;28;20105;-70
2024/03/05 01:57:48;;;;;;;65.25;31.73;;;7.20;99.90;;;;;;4993279;28;20042;-70
2024/03/05 02:00:15;;;;;;;58.67;30.00;;;7.20;99.90;;;;;;4992290;28;20097;-70
2024/03/05 02:02:43;;;;;;;62.20;29.85;;;7.20;99.90;;;;;;4992559;28;20033;-70
2024/03/05 02:05:12;;;;;;;61.70;31.08;;;7.20;99.90;;;;;;4994943;28;20106;-70
2024/03/05 02:07:39;;;;;;;70.35;34.05;;;7.20;99.90;;;;;;4991865;28;20614;-70
2024/03/05 02:10:07;;;;;;;60.58;32.92;;;7.20;99.90;;;;;;4992381;28;20451;-70
2024/03/05 02:12:37;;;;;;;66.80;32.90;;;7.20;99.90;;;;;;4991913;28;20034;-70
2024/03/05 02:15:04;;;;;;;68.97;32.70;;;7.30;99.90;;;;;;4995540;28;20077;-70
2024/03/05 02:17:31;;;;;;;73.63;33.33;;;7.20;99.90;;;;;;5010962;28;20030;-69
2024/03/05 02:54:09;;;;;;;78.53;34.45;;;6.70;99.90;;;;;;5001656;28;20374;-70
2024/03/05 02:56:35;;;;;;;74.97;34.78;;;6.70;99.90;;;;;;4990848;28;20113;-70
2024/03/05 02:59:00;;;;;;;75.07;34.45;;;6.80;99.90;;;;;;4993569;28;20014;-71
2024/03/05 03:01:26;;;;;;;77.97;35.50;;;6.80;99.90;;;;;;5010550;28;20034;-70
2024/03/05 03:03:52;;;;;;;76.53;34.95;;;6.70;99.90;;;;;;5004569;28;20029;-70
2024/03/05 03:06:18;;;;;;;76.28;34.45;;;6.70;99.90;;;;;;4991589;28;20042;-70
2024/03/05 03:08:43;;;;;;;85.47;37.15;;;6.70;99.90;;;;;;4992247;28;20072;-70
2024/03/05 03:11:16;;;;;;;71.78;33.20;;;6.70;99.90;;;;;;4991623;28;20022;-70
2024/03/05 03:13:41;;;;;;;77.20;34.97;;;6.70;99.90;;;;;;4979263;28;20477;-70
2024/03/05 03:16:07;;;;;;;77.43;33.75;;;6.70;99.90;;;;;;5005100;28;20026;-70
2024/03/05 03:18:32;;;;;;;83.03;34.58;;;6.70;99.90;;;;;;5021712;28;20070;-70
2024/03/05 03:20:58;;;;;;;75.75;33.78;;;6.70;99.90;;;;;;5018665;28;20363;-70
2024/03/05 03:23:24;;;;;;;77.20;34.85;;;6.70;99.90;;;;;;5020707;28;20097;-70
2024/03/05 03:25:50;;;;;;;76.32;33.10;;;6.60;99.90;;;;;;5020831;28;20033;-70
2024/03/05 03:28:15;;;;;;;91.82;37.40;;;6.60;99.90;;;;;;5023472;28;20034;-70
2024/03/05 03:30:41;;;;;;;88.65;37.50;;;6.60;99.90;;;;;;5023505;28;20018;-69
2024/03/05 03:33:08;;;;;;;77.38;35.40;;;6.60;99.90;;;;;;5020498;28;20018;-70
2024/03/05 03:35:35;;;;;;;86.15;36.45;;;6.60;99.90;;;;;;5015309;28;20121;-70
2024/03/05 03:38:00;;;;;;;84.72;36.63;;;6.60;99.90;;;;;;5014682;28;20021;-70
2024/03/05 03:40:26;;;;;;;82.13;36.05;;;6.60;99.90;;;;;;5013636;28;20050;-70
2024/03/05 03:42:52;;;;;;;83.05;36.75;;;6.60;99.90;;;;;;4981052;28;20072;-70
2024/03/05 03:45:18;;;;;;;87.45;36.75;;;6.50;99.90;;;;;;5000928;28;20026;-70
2024/03/05 03:47:46;;;;;;;82.95;36.38;;;6.60;99.90;;;;;;5002110;28;20414;-71
2024/03/05 03:50:12;;;;;;;90.30;36.20;;;6.50;99.90;;;;;;5013945;28;20083;-70
2024/03/05 03:52:40;;;;;;;93.47;36.50;;;6.50;99.90;;;;;;5001911;28;20587;-70
2024/03/05 03:55:05;;;;;;;81.32;36.97;;;6.50;99.90;;;;;;5014425;28;20042;-70
2024/03/05 03:57:32;;;;;;;81.22;35.33;;;6.50;99.90;;;;;;5014321;28;20026;-70
2024/03/05 03:59:58;;;;;;;84.47;34.45;;;6.50;99.90;;;;;;5012481;28;20060;-71
2024/03/05 04:02:24;;;;;;;83.90;34.45;;;6.50;99.90;;;;;;4994475;28;20022;-70
2024/03/05 04:04:50;;;;;;;84.63;35.70;;;6.50;99.90;;;;;;4994988;28;20026;-70
2024/03/05 04:07:18;;;;;;;87.40;34.88;;;6.50;99.90;;;;;;4994980;28;20034;-70
2024/03/05 04:09:46;;;;;;;88.30;35.92;;;6.50;99.90;;;;;;4995737;28;20026;-70
2024/03/05 04:12:12;;;;;;;82.15;34.17;;;6.50;99.90;;;;;;4994811;28;20049;-70
2024/03/05 04:14:38;;;;;;;83.60;34.80;;;6.50;99.90;;;;;;4993612;28;20464;-70
2024/03/05 04:17:04;;;;;;;76.28;33.80;;;6.50;99.90;;;;;;5013730;28;20121;-70
2024/03/05 04:19:30;;;;;;;80.93;32.75;;;6.50;99.90;;;;;;5012738;28;20129;-70
2024/03/05 04:21:56;;;;;;;85.90;34.30;;;6.50;99.90;;;;;;5006423;28;20042;-70
2024/03/05 04:24:22;;;;;;;78.05;33.45;;;6.50;99.90;;;;;;4993470;28;20026;-70
2024/03/05 04:26:49;;;;;;;85.50;35.38;;;6.50;99.90;;;;;;4994673;28;20037;-70
2024/03/05 04:29:19;;;;;;;78.95;33.60;;;6.50;99.90;;;;;;5005260;28;20044;-70
2024/03/05 04:32:04;;;;;;;75.78;32.65;;;6.60;99.90;;;;;;5009323;28;20048;-70
2024/03/05 04:34:31;;;;;;;81.38;33.40;;;6.50;99.90;;;;;;5013073;28;20490;-70
2024/03/05 04:36:56;;;;;;;77.38;32.50;;;6.50;99.90;;;;;;5003767;28;20049;-70
2024/03/05 04:39:22;;;;;;;74.25;30.92;;;6.60;99.90;;;;;;5009570;28;20409;-71
2024/03/05 04:41:48;;;;;;;82.03;32.28;;;6.60;99.90;;;;;;5003029;28;20038;-70
2024/03/05 04:44:14;;;;;;;77.18;32.40;;;6.60;99.90;;;;;;4994458;28;20026;-70
2024/03/05 04:46:39;;;;;;;76.53;32.33;;;6.60;99.90;;;;;;4993411;28;20034;-70
2024/03/05 04:49:06;;;;;;;74.28;32.25;;;6.60;99.90;;;;;;5001429;28;20026;-71
2024/03/05 04:51:31;;;;;;;74.93;31.55;;;6.60;99.90;;;;;;5013022;28;20084;-70
2024/03/05 04:53:57;;;;;;;70.90;31.85;;;6.70;99.90;;;;;;5013787;28;20490;-71
2024/03/05 04:56:23;;;;;;;67.70;30.75;;;6.70;99.90;;;;;;5013134;28;20022;-71
2024/03/05 04:58:48;;;;;;;66.40;30.15;;;6.70;99.90;;;;;;5001907;28;20030;-70
2024/03/05 05:01:14;;;;;;;65.63;30.10;;;6.70;99.90;;;;;;5005923;28;20424;-68
2024/03/05 05:03:42;;;;;;;66.32;29.40;;;6.70;99.90;;;;;;5005275;28;20022;-69
2024/03/05 05:06:08;;;;;;;73.45;30.30;;;6.70;99.90;;;;;;5001414;28;20042;-69
2024/03/05 05:08:35;;;;;;;70.78;32.88;;;6.70;99.90;;;;;;4998700;28;20169;-69
2024/03/05 05:11:01;;;;;;;71.45;31.40;;;6.80;99.90;;;;;;4985606;28;20026;-69
2024/03/05 05:13:26;;;;;;;70.72;31.38;;;6.80;99.90;;;;;;4993604;28;20018;-69
2024/03/05 05:15:54;;;;;;;65.65;30.40;;;6.70;99.90;;;;;;5002497;28;20445;-69
2024/03/05 05:18:20;;;;;;;64.15;29.35;;;6.70;99.90;;;;;;5012898;28;20030;-69
2024/03/05 05:20:46;;;;;;;68.47;30.63;;;6.70;99.90;;;;;;5010693;28;20022;-71
2024/03/05 05:23:12;;;;;;;63.30;30.17;;;6.70;99.90;;;;;;5019118;28;20034;-69
2024/03/05 05:25:37;;;;;;;74.05;31.25;;;6.70;99.90;;;;;;5022373;28;20040;-69
2024/03/05 05:28:06;;;;;;;66.68;30.20;;;6.60;99.90;;;;;;5022824;28;20021;-69
2024/03/05 05:30:32;;;;;;;74.63;30.42;;;6.70;99.90;;;;;;5020617;28;20025;-69
2024/03/05 05:32:58;;;;;;;70.15;30.63;;;6.70;99.90;;;;;;5016060;28;20026;-69
2024/03/05 05:35:23;;;;;;;87.05;32.05;;;6.70;99.90;;;;;;5014708;28;20108;-69
2024/03/05 05:37:49;;;;;;;81.68;34.53;;;6.70;99.90;;;;;;5015282;28;20026;-69
2024/03/05 05:40:18;;;;;;;77.25;33.03;;;6.70;99.90;;;;;;5013754;28;20037;-69
2024/03/05 05:42:48;;;;;;;77.25;33.60;;;6.70;99.90;;;;;;5013665;28;20022;-69
2024/03/05 05:45:14;;;;;;;80.97;34.55;;;6.70;99.90;;;;;;5012947;28;20435;-69
2024/03/05 05:47:57;;;;;;;74.55;33.30;;;6.70;99.90;;;;;;5012425;28;20061;-69
2024/03/05 05:50:31;;;;;;;77.10;33.95;;;6.80;99.90;;;;;;5010980;28;20038;-70
2024/03/05 05:52:57;;;;;;;79.13;33.63;;;6.70;99.90;;;;;;5012796;28;20026;-68
2024/03/05 05:55:26;;;;;;;80.28;33.90;;;6.70;99.90;;;;;;5008721;28;20108;-70
2024/03/05 05:57:53;;;;;;;87.18;35.50;;;6.70;99.90;;;;;;4993389;28;20056;-69
2024/03/05 06:00:35;;;;;;;82.70;34.17;;;6.80;99.90;;;;;;4992025;28;20090;-69
2024/03/05 06:03:04;;;;;;;85.85;34.13;;;6.80;99.90;;;;;;5005804;28;20029;-69
2024/03/05 06:05:31;;;;;;;79.22;34.90;;;6.80;99.90;;;;;;4992343;28;20029;-69
2024/03/05 06:07:59;;;;;;;86.82;36.90;;;6.80;99.90;;;;;;4993057;28;20030;-70
2024/03/05 06:10:25;;;;;;;92.88;35.90;;;6.70;99.90;;;;;;4998938;28;20033;-69
2024/03/05 06:12:51;;;;;;;85.07;36.75;;;6.80;99.90;;;;;;5012663;28;20025;-70
2024/03/05 06:15:20;;;;;;;89.43;36.33;;;6.80;99.90;;;;;;5011582;28;20022;-70
2024/03/05 06:17:46;;;;;;;82.97;35.60;;;6.80;99.90;;;;;;5012103;28;20539;-70
2024/03/05 06:20:13;;;;;;;87.45;36.60;;;6.80;99.90;;;;;;5004185;28;20093;-71
2024/03/05 06:22:43;;;;;;;83.70;33.83;;;6.80;99.90;;;;;;4991162;28;20022;-69
2024/03/05 06:25:11;;;;;;;81.78;34.45;;;6.80;99.90;;;;;;5012284;28;20029;-69
2024/03/05 06:27:38;;;;;;;85.50;36.20;;;6.80;99.90;;;;;;5011354;28;20065;-70
2024/03/05 06:30:07;;;;;;;87.38;35.00;;;6.80;99.90;;;;;;5011874;28;20538;-69
2024/03/05 06:32:42;;;;;;;86.90;35.80;;;6.80;99.90;;;;;;5011453;28;20029;-70
2024/03/05 06:35:10;;;;;;;79.10;34.53;;;6.80;99.90;;;;;;5011978;28;20064;-70
2024/03/05 06:37:38;;;;;;;83.15;35.55;;;6.90;99.90;;;;;;5011337;28;20113;-67
2024/03/05 06:40:09;;;;;;;81.72;36.45;;;6.90;99.90;;;;;;5003090;28;20032;-69
2024/03/05 06:42:51;;;;;;;94.32;38.05;;;6.90;99.90;;;;;;4993125;28;20214;-68
2024/03/05 06:45:30;;;;;;;79.57;36.47;;;6.90;99.90;;;;;;5010164;28;20026;-68
2024/03/05 06:47:56;;;;;;;78.25;35.45;;;6.90;99.90;;;;;;5003049;28;20118;-70
2024/03/05 06:50:33;;;;;;;81.68;34.72;;;7.00;99.90;;;;;;4998454;28;20455;-68
2024/03/05 06:58:30;;;;;;;85.55;36.22;;;7.00;99.90;;;;;;5008765;28;20052;-68
2024/03/05 07:00:56;;;;;;;77.93;33.50;;;7.00;99.90;;;;;;5001252;28;20029;-68
2024/03/05 07:03:22;;;;;;;77.53;34.22;;;7.00;99.90;;;;;;5007924;28;20025;-68
2024/03/05 07:05:48;;;;;;;79.45;34.25;;;7.10;99.90;;;;;;5020422;28;20636;-68
2024/03/05 07:08:14;;;;;;;75.63;35.08;;;7.10;99.90;;;;;;5012750;28;20021;-68
2024/03/05 07:10:41;;;;;;;79.68;35.22;;;7.10;99.90;;;;;;4993779;28;20116;-69
2024/03/05 07:13:11;;;;;;;76.57;33.75;;;7.10;99.90;;;;;;4993794;28;20026;-69
2024/03/05 07:15:37;;;;;;;75.53;33.25;;;7.10;99.90;;;;;;5003902;28;20072;-70
2024/03/05 07:18:03;;;;;;;74.32;33.90;;;7.10;99.90;;;;;;5016110;28;20033;-69
2024/03/05 07:20:30;;;;;;;76.15;33.08;;;7.20;99.90;;;;;;5011059;28;20022;-69
2024/03/05 07:22:55;;;;;;;80.88;35.50;;;7.20;99.90;;;;;;5011616;28;20044;-69
2024/03/05 07:25:22;;;;;;;87.72;36.00;;;7.20;99.90;;;;;;5010392;28;20402;-68
2024/03/05 07:27:48;;;;;;;82.43;33.28;;;7.20;99.90;;;;;;5011540;28;20026;-69
2024/03/05 07:30:20;;;;;;;75.13;32.72;;;7.20;99.90;;;;;;5010627;28;20113;-69
2024/03/05 07:32:46;;;;;;;83.22;35.42;;;7.20;99.90;;;;;;5011009;28;20022;-69
2024/03/05 07:35:17;;;;;;;78.75;35.38;;;7.20;99.90;;;;;;5010860;28;20117;-68
2024/03/05 07:37:45;;;;;;;75.45;33.85;;;7.30;99.90;;;;;;5011766;28;20061;-69
2024/03/05 07:40:22;;;;;;;74.40;33.65;;;7.20;99.90;;;;;;5006728;28;20026;-69
2024/03/05 07:42:51;;;;;;;76.40;34.05;;;7.30;99.90;;;;;;5010663;28;20033;-68
2024/03/05 07:45:17;;;;;;;80.78;32.65;;;7.30;99.90;;;;;;5011747;28;20371;-67
2024/03/05 07:47:47;;;;;;;80.13;36.10;;;7.30;99.90;;;;;;5001473;28;20107;-70
2024/03/05 07:50:15;;;;;;;78.13;34.10;;;7.30;99.90;;;;;;4997347;28;20418;-69
2024/03/05 07:52:42;;;;;;;75.25;34.00;;;7.40;99.90;;;;;;5010490;28;20448;-69
2024/03/05 07:55:10;;;;;;;78.43;35.13;;;7.30;99.90;;;;;;5010181;28;20542;-70
2024/03/05 07:57:40;;;;;;;77.75;34.55;;;7.30;99.90;;;;;;5010877;28;20108;-69
2024/03/05 08:00:08;;;;;;;73.43;33.30;;;7.40;99.90;;;;;;5010929;28;20018;-69
2024/03/05 08:02:37;;;;;;;77.55;33.42;;;7.40;99.90;;;;;;5010355;28;20046;-70
2024/03/05 08:05:04;;;;;;;75.88;34.33;;;7.40;99.90;;;;;;5010139;28;20037;-69
2024/03/05 08:07:33;;;;;;;76.47;33.13;;;7.50;99.90;;;;;;5010592;28;20018;-69
2024/03/05 08:09:59;;;;;;;72.93;32.45;;;7.50;99.90;;;;;;5010484;28;20033;-69
2024/03/05 08:12:25;;;;;;;74.85;34.10;;;7.50;99.90;;;;;;5010476;28;20037;-69
2024/03/05 08:14:51;;;;;;;77.30;34.15;;;7.50;99.90;;;;;;5012312;28;20117;-68
2024/03/05 08:17:16;;;;;;;76.75;34.67;;;7.60;99.90;;;;;;5014193;28;20018;-68
2024/03/05 08:19:42;;;;;;;77.85;34.33;;;7.70;99.90;;;;;;5015443;28;20541;-69
2024/03/05 08:22:07;;;;;;;77.00;35.15;;;7.60;99.90;;;;;;5014685;28;20037;-69
2024/03/05 08:24:34;;;;;;;76.20;34.55;;;7.60;99.90;;;;;;5013377;28;20041;-70
2024/03/05 08:26:59;;;;;;;77.57;34.45;;;7.60;99.90;;;;;;5014782;28;20021;-70
2024/03/05 08:29:25;;;;;;;71.07;32.83;;;7.60;99.90;;;;;;5013232;28;20017;-68
2024/03/05 08:31:51;;;;;;;66.13;32.20;;;7.60;99.90;;;;;;5014519;28;20026;-69
2024/03/05 08:34:16;;;;;;;62.95;29.77;;;7.60;99.90;;;;;;5013441;28;20030;-68
2024/03/05 08:36:44;;;;;;;67.53;31.92;;;7.50;99.90;;;;;;4996671;28;20034;-70
2024/03/05 08:39:17;;;;;;;67.63;30.15;;;7.60;99.90;;;;;;5013562;28;20033;-69
2024/03/05 08:41:44;;;;;;;66.85;30.60;;;7.60;99.90;;;;;;5013263;28;20026;-69
2024/03/05 08:44:10;;;;;;;69.18;32.08;;;7.50;99.90;;;;;;5014309;28;20109;-68
2024/03/05 08:46:36;;;;;;;68.97;32.85;;;7.60;99.90;;;;;;5012813;28;20323;-68
2024/03/05 08:49:01;;;;;;;67.75;32.40;;;7.60;99.90;;;;;;4997991;28;20092;-70
2024/03/05 08:51:27;;;;;;;69.85;34.03;;;7.60;99.90;;;;;;5011126;28;20017;-69
2024/03/05 08:53:55;;;;;;;73.03;33.50;;;7.60;99.90;;;;;;5013732;28;20477;-69
2024/03/05 08:56:20;;;;;;;68.28;32.65;;;7.60;99.90;;;;;;5012815;28;20044;-70
2024/03/05 08:58:46;;;;;;;71.38;31.65;;;7.60;99.90;;;;;;5014106;28;20026;-70
2024/03/05 09:01:12;;;;;;;68.88;32.08;;;7.60;99.90;;;;;;5013105;28;20124;-70
2024/03/05 09:03:38;;;;;;;66.47;30.65;;;7.60;99.90;;;;;;5013362;28;20459;-69
2024/03/05 09:06:05;;;;;;;60.97;29.27;;;7.60;99.90;;;;;;5012952;28;20044;-69
2024/03/05 09:08:31;;;;;;;50.63;25.77;;;7.60;99.90;;;;;;5013167;28;20470;-70
2024/03/05 09:10:57;;;;;;;49.33;24.10;;;7.70;99.90;;;;;;5013555;28;20030;-71
2024/03/05 09:13:23;;;;;;;44.15;21.70;;;7.60;99.90;;;;;;5013116;28;20026;-69
2024/03/05 09:15:48;;;;;;;40.65;19.95;;;7.50;99.90;;;;;;5013018;28;20026;-69
2024/03/05 09:18:16;;;;;;;34.17;16.85;;;7.40;99.90;;;;;;5013730;28;20026;-70
2024/03/05 09:20:42;;;;;;;27.80;14.73;;;7.30;99.90;;;;;;5013028;28;20017;-69
2024/03/05 09:23:08;;;;;;;29.08;14.50;;;7.30;99.90;;;;;;5013269;28;20105;-70
2024/03/05 09:25:36;;;;;;;26.00;13.90;;;7.30;99.90;;;;;;5011954;28;20651;-69
2024/03/05 09:28:01;;;;;;;22.58;10.93;;;7.20;99.90;;;;;;5013068;28;20036;-69
2024/03/05 09:30:28;;;;;;;18.65;9.80;;;7.20;99.90;;;;;;5012150;28;20105;-68
2024/03/05 09:32:53;;;;;;;23.48;10.98;;;7.10;99.90;;;;;;5012890;28;20026;-69
2024/03/05 09:35:19;;;;;;;21.15;10.95;;;7.00;99.90;;;;;;5011572;28;20036;-69
2024/03/05 09:37:45;;;;;;;24.15;12.20;;;6.90;99.90;;;;;;5009971;28;20030;-68
2024/03/05 09:40:16;;;;;;;21.15;10.93;;;6.90;99.90;;;;;;4999801;28;20053;-69
2024/03/05 09:42:43;;;;;;;25.13;11.70;;;6.90;99.90;;;;;;5012942;28;20021;-69
2024/03/05 09:45:14;;;;;;;23.23;11.30;;;6.80;99.90;;;;;;5012411;28;20041;-69
2024/03/05 09:47:42;;;;;;;23.40;12.27;;;6.80;99.90;;;;;;5012595;28;20018;-70
2024/03/05 09:50:11;;;;;;;26.55;13.00;;;6.80;99.90;;;;;;4994728;28;20018;-70
2024/03/05 09:52:37;;;;;;;27.67;14.02;;;6.80;99.90;;;;;;5012150;28;20026;-70
2024/03/05 09:55:04;;;;;;;20.98;11.68;;;6.80;99.90;;;;;;5012482;28;20061;-70
2024/03/05 09:57:34;;;;;;;24.88;12.60;;;6.80;99.90;;;;;;4987618;28;20033;-69
2024/03/05 09:59:59;;;;;;;24.35;13.23;;;6.80;99.90;;;;;;4992579;28;20088;-69
2024/03/05 10:02:26;;;;;;;24.88;13.45;;;6.80;99.90;;;;;;4992394;28;20438;-69
2024/03/05 10:04:54;;;;;;;22.05;12.27;;;6.80;99.90;;;;;;4992871;28;20112;-68
2024/03/05 10:07:26;;;;;;;24.42;12.70;;;6.90;99.90;;;;;;4992155;28;20022;-69
2024/03/05 10:10:11;;;;;;;24.77;13.30;;;6.90;99.90;;;;;;4975052;28;20041;-68
2024/03/05 10:12:40;;;;;;;24.70;13.00;;;6.90;99.90;;;;;;4992127;28;20030;-69
2024/03/05 10:15:20;;;;;;;23.70;12.90;;;6.90;99.90;;;;;;4992315;28;20419;-69
2024/03/05 10:17:52;;;;;;;20.77;11.98;;;7.00;99.90;;;;;;4992849;28;20042;-68
2024/03/05 10:20:28;;;;;;;20.58;11.25;;;7.00;99.90;;;;;;4991891;28;20053;-68
2024/03/05 10:22:55;;;;;;;14.57;9.30;;;7.00;99.90;;;;;;4992631;28;20070;-68
2024/03/05 10:25:23;;;;;;;15.73;9.02;;;7.10;99.90;;;;;;4991538;28;20038;-68
2024/03/05 10:27:50;;;;;;;14.30;8.48;;;7.20;99.90;;;;;;4992490;28;20137;-68
2024/03/05 10:30:34;;;;;;;15.45;9.15;;;7.10;99.90;;;;;;4991877;28;20023;-68
2024/03/05 10:33:02;;;;;;;14.68;8.02;;;7.10;99.90;;;;;;4997947;28;20069;-68
2024/03/05 10:35:32;;;;;;;13.05;8.80;;;7.10;99.90;;;;;;5010973;28;20026;-68
2024/03/05 10:38:09;;;;;;;12.30;7.80;;;7.20;99.90;;;;;;5011385;28;20026;-70
2024/03/05 10:40:35;;;;;;;13.65;7.40;;;7.20;99.90;;;;;;5009246;28;20018;-69
2024/03/05 10:43:04;;;;;;;13.50;7.57;;;7.40;99.90;;;;;;5011873;28;20482;-69
2024/03/05 10:45:32;;;;;;;12.95;7.57;;;7.60;99.90;;;;;;5010023;28;20029;-69
2024/03/05 10:48:00;;;;;;;13.20;8.60;;;7.70;99.90;;;;;;4992289;28;20055;-69
2024/03/05 10:50:27;;;;;;;13.38;7.57;;;7.90;99.90;;;;;;5005949;28;20109;-69
2024/03/05 10:52:57;;;;;;;12.40;7.20;;;8.10;99.90;;;;;;5012234;28;20104;-69
2024/03/05 10:55:24;;;;;;;13.95;8.35;;;8.10;99.90;;;;;;5010652;28;20103;-70
2024/03/05 11:00:57;;;;;;;18.02;8.73;;;8.30;99.90;;;;;;4950762;29;20032;-70
2024/03/05 11:03:39;;;;;;;11.43;8.50;;;8.30;99.90;;;;;;4950618;29;20103;-69
2024/03/05 11:06:06;;;;;;;13.32;8.18;;;8.20;99.90;;;;;;4969300;28;20118;-69
2024/03/05 11:08:35;;;;;;;12.68;8.55;;;8.20;99.90;;;;;;5010894;28;20100;-69
2024/03/05 11:11:05;;;;;;;12.68;8.82;;;8.10;99.90;;;;;;5011390;28;20026;-69
2024/03/05 11:13:33;;;;;;;14.05;9.50;;;8.00;99.90;;;;;;5010864;28;20423;-69
2024/03/05 11:16:00;;;;;;;13.60;8.57;;;7.90;99.90;;;;;;5011865;28;20040;-69
2024/03/05 11:18:36;;;;;;;12.65;8.50;;;7.80;99.90;;;;;;5010599;28;20034;-69
2024/03/05 11:21:09;;;;;;;13.60;8.40;;;7.80;99.90;;;;;;5011217;28;20022;-69
2024/03/05 11:23:41;;;;;;;9.95;6.97;;;7.80;99.90;;;;;;5018187;28;20749;-69
2024/03/05 11:26:07;;;;;;;9.90;7.20;;;7.90;99.90;;;;;;5021904;28;20049;-70
2024/03/05 11:28:35;;;;;;;11.27;7.47;;;7.80;99.90;;;;;;5019141;28;20100;-69
2024/03/05 11:31:16;;;;;;;10.63;6.40;;;7.70;99.90;;;;;;4996139;28;20027;-69
2024/03/05 11:33:46;;;;;;;9.00;6.32;;;7.70;99.90;;;;;;4995028;28;20018;-69
2024/03/05 11:36:20;;;;;;;9.38;5.55;;;7.60;99.90;;;;;;5008298;28;20057;-68
2024/03/05 11:39:08;;;;;;;9.88;6.30;;;7.80;99.90;;;;;;5009950;28;20027;-69
2024/03/05 11:41:41;;;;;;;8.80;6.03;;;7.80;99.90;;;;;;5008384;28;20445;-67
2024/03/05 11:44:10;;;;;;;8.82;5.90;;;7.70;99.90;;;;;;5007787;28;20030;-69
2024/03/05 11:46:51;;;;;;;7.22;5.72;;;7.70;99.90;;;;;;5010398;28;20026;-68
2024/03/05 11:49:17;;;;;;;7.30;5.97;;;7.70;99.90;;;;;;5007747;28;20031;-67
2024/03/05 11:51:44;;;;;;;6.95;4.95;;;7.60;99.90;;;;;;5007061;28;20030;-68
2024/03/05 11:54:13;;;;;;;6.30;4.88;;;7.60;99.90;;;;;;5011017;28;20058;-68
2024/03/05 11:56:40;;;;;;;7.15;4.80;;;7.60;99.90;;;;;;5014983;28;20022;-68
2024/03/05 11:59:08;;;;;;;6.55;4.85;;;7.60;99.90;;;;;;5012308;28;20022;-68
2024/03/05 12:01:34;;;;;;;6.55;3.83;;;7.50;99.90;;;;;;5017652;28;20022;-70
2024/03/05 12:04:03;;;;;;;5.22;3.78;;;7.50;99.90;;;;;;5017518;28;20097;-70
2024/03/05 12:06:29;;;;;;;5.83;4.27;;;7.60;99.90;;;;;;4997625;28;20151;-69
2024/03/05 12:08:56;;;;;;;5.20;3.72;;;7.40;99.90;;;;;;5014901;28;20048;-69
2024/03/05 12:11:22;;;;;;;6.75;4.75;;;7.30;99.90;;;;;;5018817;28;20417;-69
2024/03/05 12:13:48;;;;;;;6.55;4.28;;;7.20;99.90;;;;;;5014941;28;20021;-69
2024/03/05 12:16:14;;;;;;;7.47;3.33;;;7.20;99.90;;;;;;5014348;28;20026;-69
2024/03/05 12:18:40;;;;;;;4.70;3.53;;;7.10;99.90;;;;;;4998728;28;20033;-69
2024/03/05 12:21:07;;;;;;;4.95;3.63;;;7.00;99.90;;;;;;5013826;28;20060;-69
2024/03/05 12:23:39;;;;;;;4.32;3.13;;;7.10;99.90;;;;;;5013964;28;20048;-69
2024/03/05 12:26:04;;;;;;;8.48;3.95;;;7.10;99.90;;;;;;5008789;28;20049;-73
2024/03/05 12:28:31;;;;;;;4.43;3.00;;;7.10;99.90;;;;;;5011938;28;20021;-72
2024/03/05 12:30:57;;;;;;;7.30;3.63;;;7.20;99.90;;;;;;5007635;28;20360;-73
2024/03/05 12:33:26;;;;;;;4.53;3.35;;;7.20;99.90;;;;;;5009975;28;20029;-74
2024/03/05 12:35:52;;;;;;;4.75;3.05;;;7.20;99.90;;;;;;5019498;28;20393;-73
2024/03/05 12:38:18;;;;;;;4.93;3.05;;;7.40;99.90;;;;;;5003671;28;20042;-72
2024/03/05 12:40:44;;;;;;;4.95;2.80;;;7.50;99.90;;;;;;5004091;28;20510;-71
2024/03/05 12:43:10;;;;;;;3.80;2.72;;;7.60;99.90;;;;;;5011437;28;20022;-71
2024/03/05 12:45:37;;;;;;;3.67;2.78;;;7.60;99.90;;;;;;5010663;28;20084;-73
2024/03/05 12:48:08;;;;;;;4.03;2.72;;;7.70;99.90;;;;;;5012854;28;20028;-73
2024/03/05 12:50:35;;;;;;;4.45;2.72;;;7.80;99.90;;;;;;5008850;28;20327;-71
2024/03/05 12:53:06;;;;;;;5.25;2.78;;;7.80;99.90;;;;;;5012388;28;20375;-70
2024/03/05 12:55:32;;;;;;;3.95;2.92;;;8.00;99.90;;;;;;5010753;28;20071;-71
2024/03/05 12:58:07;;;;;;;3.22;2.58;;;8.10;99.90;;;;;;5002841;28;20435;-71
2024/03/05 13:00:36;;;;;;;3.10;2.30;;;8.30;99.90;;;;;;5009220;28;20379;-71
2024/03/05 13:03:05;;;;;;;5.22;2.42;;;8.50;99.90;;;;;;5010554;28;20021;-71
2024/03/05 13:05:35;;;;;;;5.20;2.10;;;8.80;99.90;;;;;;5008449;28;20117;-70
2024/03/05 13:08:01;;;;;;;2.67;1.73;;;9.00;99.90;;;;;;5012736;28;20257;-72
2024/03/05 13:10:27;;;;;;;3.70;1.80;;;9.30;99.90;;;;;;5017036;28;20026;-73
2024/03/05 13:12:53;;;;;;;4.95;2.10;;;9.40;99.90;;;;;;5019540;28;20125;-71
2024/03/05 13:15:19;;;;;;;3.70;2.15;;;9.50;99.90;;;;;;5017150;28;20117;-72
2024/03/05 13:17:45;;;;;;;2.67;2.03;;;9.60;99.90;;;;;;5017152;28;20137;-70
2024/03/05 13:20:22;;;;;;;2.58;1.80;;;9.60;99.90;;;;;;5013921;28;20018;-70
2024/03/05 13:22:52;;;;;;;1.50;1.40;;;9.70;99.90;;;;;;5020662;28;20022;-71
2024/03/05 13:25:18;;;;;;;3.08;2.08;;;9.80;99.90;;;;;;5018048;28;20115;-73
2024/03/05 13:27:48;;;;;;;1.92;1.63;;;9.90;99.90;;;;;;5019948;28;20021;-70